sensor_id;sensor_type;location;lat;lon;timestamp;temperature;humidity
7360;DHT22;3720;48.274;7.796;2023-05-07T00:02:22;14.70;99.90
7360;DHT22;3720;48.274;7.796;2023-05-07T00:04:54;14.60;99.90
7360;DHT22;3720;48.274;7.796;2023-05-07T00:07:27;14.70;99.90
7360;DHT22;3720;48.274;7.796;2023-05-07T00:10:00;14.70;99.90
7360;DHT22;3720;48.274;7.796;2023-05-07T00:12:31;14.70;99.90
7360;DHT22;3720;48.274;7.796;2023-05-07T00:15:05;14.70;99.90
7360;DHT22;3720;48.274;7.796;2023-05-07T00:17:38;14.80;99.90
7360;DHT22;3720;48.274;7.796;2023-05-07T00:20:10;14.80;99.90
7360;DHT22;3720;48.274;7.796;2023-05-07T00:22:44;14.70;99.90
7360;DHT22;3720;48.274;7.796;2023-05-07T00:25:16;14.70;99.90
7360;DHT22;3720;48.274;7.796;2023-05-07T00:27:50;14.70;99.90
7360;DHT22;3720;48.274;7.796;2023-05-07T00:30:22;14.70;99.90
7360;DHT22;3720;48.274;7.796;2023-05-07T00:32:53;14.80;99.90
7360;DHT22;3720;48.274;7.796;2023-05-07T00:35:25;14.70;99.90
7360;DHT22;3720;48.274;7.796;2023-05-07T00:37:59;14.60;99.90
7360;DHT22;3720;48.274;7.796;2023-05-07T00:40:31;14.60;99.90
7360;DHT22;3720;48.274;7.796;2023-05-07T00:43:03;14.70;99.90
7360;DHT22;3720;48.274;7.796;2023-05-07T00:45:35;14.70;99.90
7360;DHT22;3720;48.274;7.796;2023-05-07T00:48:07;14.70;99.90
7360;DHT22;3720;48.274;7.796;2023-05-07T00:50:39;14.70;99.90
7360;DHT22;3720;48.274;7.796;2023-05-07T00:53:13;14.70;99.90
7360;DHT22;3720;48.274;7.796;2023-05-07T00:55:45;14.60;99.90
7360;DHT22;3720;48.274;7.796;2023-05-07T00:58:17;14.60;99.90
7360;DHT22;3720;48.274;7.796;2023-05-07T01:00:49;14.60;99.90
7360;DHT22;3720;48.274;7.796;2023-05-07T01:03:22;14.50;99.90
7360;DHT22;3720;48.274;7.796;2023-05-07T01:05:55;14.50;99.90
7360;DHT22;3720;48.274;7.796;2023-05-07T01:08:31;14.40;99.90
7360;DHT22;3720;48.274;7.796;2023-05-07T01:11:06;14.30;99.90
7360;DHT22;3720;48.274;7.796;2023-05-07T01:13:38;14.30;99.90
7360;DHT22;3720;48.274;7.796;2023-05-07T01:16:11;14.30;99.90
7360;DHT22;3720;48.274;7.796;2023-05-07T01:18:43;14.30;99.90
7360;DHT22;3720;48.274;7.796;2023-05-07T01:21:18;14.30;99.90
7360;DHT22;3720;48.274;7.796;2023-05-07T01:23:51;14.30;99.90
7360;DHT22;3720;48.274;7.796;2023-05-07T01:26:23;14.30;99.90
7360;DHT22;3720;48.274;7.796;2023-05-07T01:28:54;14.30;99.90
7360;DHT22;3720;48.274;7.796;2023-05-07T01:31:26;14.30;99.90
7360;DHT22;3720;48.274;7.796;2023-05-07T01:33:59;14.20;99.90
7360;DHT22;3720;48.274;7.796;2023-05-07T01:36:33;14.20;99.90
7360;DHT22;3720;48.274;7.796;2023-05-07T01:39:08;14.20;99.90
7360;DHT22;3720;48.274;7.796;2023-05-07T01:41:41;14.10;99.90
7360;DHT22;3720;48.274;7.796;2023-05-07T01:44:15;14.10;99.90
7360;DHT22;3720;48.274;7.796;2023-05-07T01:46:48;14.10;99.90
7360;DHT22;3720;48.274;7.796;2023-05-07T01:49:21;14.20;99.90
7360;DHT22;3720;48.274;7.796;2023-05-07T01:51:52;14.20;99.90
7360;DHT22;3720;48.274;7.796;2023-05-07T01:54:27;14.20;99.90
7360;DHT22;3720;48.274;7.796;2023-05-07T01:56:59;14.10;99.90
7360;DHT22;3720;48.274;7.796;2023-05-07T01:59:31;14.00;99.90
7360;DHT22;3720;48.274;7.796;2023-05-07T02:02:04;13.90;99.90
7360;DHT22;3720;48.274;7.796;2023-05-07T02:04:35;13.90;99.90
7360;DHT22;3720;48.274;7.796;2023-05-07T02:07:08;13.80;99.90
7360;DHT22;3720;48.274;7.796;2023-05-07T02:09:42;13.80;99.90
7360;DHT22;3720;48.274;7.796;2023-05-07T02:12:13;13.80;99.90
7360;DHT22;3720;48.274;7.796;2023-05-07T02:14:45;13.70;99.90
7360;DHT22;3720;48.274;7.796;2023-05-07T02:17:17;13.70;99.90
7360;DHT22;3720;48.274;7.796;2023-05-07T02:19:49;13.70;99.90
7360;DHT22;3720;48.274;7.796;2023-05-07T02:22:21;13.70;99.90
7360;DHT22;3720;48.274;7.796;2023-05-07T02:24:54;13.70;99.90
7360;DHT22;3720;48.274;7.796;2023-05-07T02:27:26;13.70;99.90
7360;DHT22;3720;48.274;7.796;2023-05-07T02:29:58;13.70;99.90
7360;DHT22;3720;48.274;7.796;2023-05-07T02:32:30;13.60;99.90
7360;DHT22;3720;48.274;7.796;2023-05-07T02:35:02;13.70;99.90
7360;DHT22;3720;48.274;7.796;2023-05-07T02:37:34;13.50;99.90
7360;DHT22;3720;48.274;7.796;2023-05-07T02:40:10;13.50;99.90
7360;DHT22;3720;48.274;7.796;2023-05-07T02:42:43;13.40;99.90
7360;DHT22;3720;48.274;7.796;2023-05-07T02:45:15;13.40;99.90
7360;DHT22;3720;48.274;7.796;2023-05-07T02:47:46;13.40;99.90
7360;DHT22;3720;48.274;7.796;2023-05-07T02:50:18;13.40;99.90
7360;DHT22;3720;48.274;7.796;2023-05-07T02:52:50;13.40;99.90
7360;DHT22;3720;48.274;7.796;2023-05-07T02:55:23;13.40;99.90
7360;DHT22;3720;48.274;7.796;2023-05-07T02:57:56;13.40;99.90
7360;DHT22;3720;48.274;7.796;2023-05-07T03:00:27;13.40;99.90
7360;DHT22;3720;48.274;7.796;2023-05-07T03:02:59;13.30;99.90
7360;DHT22;3720;48.274;7.796;2023-05-07T03:05:31;13.30;99.90
7360;DHT22;3720;48.274;7.796;2023-05-07T03:08:03;13.20;99.90
7360;DHT22;3720;48.274;7.796;2023-05-07T03:10:37;13.20;99.90
7360;DHT22;3720;48.274;7.796;2023-05-07T03:13:10;13.20;99.90
7360;DHT22;3720;48.274;7.796;2023-05-07T03:15:42;13.20;99.90
7360;DHT22;3720;48.274;7.796;2023-05-07T03:18:13;13.20;99.90
7360;DHT22;3720;48.274;7.796;2023-05-07T03:20:46;13.20;99.90
7360;DHT22;3720;48.274;7.796;2023-05-07T03:23:17;13.10;99.90
7360;DHT22;3720;48.274;7.796;2023-05-07T03:25:51;13.10;99.90
7360;DHT22;3720;48.274;7.796;2023-05-07T03:28:22;13.10;99.90
7360;DHT22;3720;48.274;7.796;2023-05-07T03:30:54;13.00;99.90
7360;DHT22;3720;48.274;7.796;2023-05-07T03:33:26;13.00;99.90
7360;DHT22;3720;48.274;7.796;2023-05-07T03:35:59;13.10;99.90
7360;DHT22;3720;48.274;7.796;2023-05-07T03:38:31;13.00;99.90
7360;DHT22;3720;48.274;7.796;2023-05-07T03:41:04;13.10;99.90
7360;DHT22;3720;48.274;7.796;2023-05-07T03:43:36;13.10;99.90
7360;DHT22;3720;48.274;7.796;2023-05-07T03:46:08;13.10;99.90
7360;DHT22;3720;48.274;7.796;2023-05-07T03:48:40;13.20;99.90
7360;DHT22;3720;48.274;7.796;2023-05-07T03:51:12;13.20;99.90
7360;DHT22;3720;48.274;7.796;2023-05-07T03:53:43;13.30;99.90
7360;DHT22;3720;48.274;7.796;2023-05-07T03:56:17;13.20;99.90
7360;DHT22;3720;48.274;7.796;2023-05-07T03:58:49;13.20;99.90
7360;DHT22;3720;48.274;7.796;2023-05-07T04:01:20;13.20;99.90
7360;DHT22;3720;48.274;7.796;2023-05-07T04:03:52;13.10;99.90
7360;DHT22;3720;48.274;7.796;2023-05-07T04:06:24;13.10;99.90
7360;DHT22;3720;48.274;7.796;2023-05-07T04:08:56;13.10;99.90
7360;DHT22;3720;48.274;7.796;2023-05-07T04:11:30;13.10;99.90
7360;DHT22;3720;48.274;7.796;2023-05-07T04:14:02;13.00;99.90
7360;DHT22;3720;48.274;7.796;2023-05-07T04:16:34;13.00;99.90
7360;DHT22;3720;48.274;7.796;2023-05-07T04:19:07;13.00;99.90
7360;DHT22;3720;48.274;7.796;2023-05-07T04:21:39;12.90;99.90
7360;DHT22;3720;48.274;7.796;2023-05-07T04:24:10;13.00;99.90
7360;DHT22;3720;48.274;7.796;2023-05-07T04:26:44;12.90;99.90
7360;DHT22;3720;48.274;7.796;2023-05-07T04:29:15;12.90;99.90
7360;DHT22;3720;48.274;7.796;2023-05-07T04:31:48;12.80;99.90
7360;DHT22;3720;48.274;7.796;2023-05-07T04:34:19;12.80;99.90
7360;DHT22;3720;48.274;7.796;2023-05-07T04:36:51;12.80;99.90
7360;DHT22;3720;48.274;7.796;2023-05-07T04:39:23;12.80;99.90
7360;DHT22;3720;48.274;7.796;2023-05-07T04:41:57;12.80;99.90
7360;DHT22;3720;48.274;7.796;2023-05-07T04:44:29;12.80;99.90
7360;DHT22;3720;48.274;7.796;2023-05-07T04:47:01;13.00;99.90
7360;DHT22;3720;48.274;7.796;2023-05-07T04:49:33;13.10;99.90
7360;DHT22;3720;48.274;7.796;2023-05-07T04:52:05;13.10;99.90
7360;DHT22;3720;48.274;7.796;2023-05-07T04:54:37;13.20;99.90
7360;DHT22;3720;48.274;7.796;2023-05-07T04:57:10;13.20;99.90
7360;DHT22;3720;48.274;7.796;2023-05-07T04:59:42;13.30;99.90
7360;DHT22;3720;48.274;7.796;2023-05-07T05:02:15;13.30;99.90
7360;DHT22;3720;48.274;7.796;2023-05-07T05:04:47;13.30;99.90
7360;DHT22;3720;48.274;7.796;2023-05-07T05:07:19;13.30;99.90
7360;DHT22;3720;48.274;7.796;2023-05-07T05:09:50;13.30;99.90
7360;DHT22;3720;48.274;7.796;2023-05-07T05:12:24;13.40;99.90
7360;DHT22;3720;48.274;7.796;2023-05-07T05:14:56;13.40;99.90
7360;DHT22;3720;48.274;7.796;2023-05-07T05:17:28;13.50;99.90
7360;DHT22;3720;48.274;7.796;2023-05-07T05:20:00;13.60;99.90
7360;DHT22;3720;48.274;7.796;2023-05-07T05:22:31;13.70;99.90
7360;DHT22;3720;48.274;7.796;2023-05-07T05:25:04;13.80;99.90
7360;DHT22;3720;48.274;7.796;2023-05-07T05:27:38;13.80;99.90
7360;DHT22;3720;48.274;7.796;2023-05-07T05:30:11;13.80;99.90
7360;DHT22;3720;48.274;7.796;2023-05-07T05:32:43;13.80;99.90
7360;DHT22;3720;48.274;7.796;2023-05-07T05:35:15;13.80;99.90
7360;DHT22;3720;48.274;7.796;2023-05-07T05:37:47;13.80;99.90
7360;DHT22;3720;48.274;7.796;2023-05-07T05:40:20;13.90;99.90
7360;DHT22;3720;48.274;7.796;2023-05-07T05:42:53;14.00;99.90
7360;DHT22;3720;48.274;7.796;2023-05-07T05:45:25;14.10;99.90
7360;DHT22;3720;48.274;7.796;2023-05-07T05:47:58;14.20;99.90
7360;DHT22;3720;48.274;7.796;2023-05-07T05:50:30;14.20;99.90
7360;DHT22;3720;48.274;7.796;2023-05-07T05:53:02;14.30;99.90
7360;DHT22;3720;48.274;7.796;2023-05-07T05:55:34;14.40;99.90
7360;DHT22;3720;48.274;7.796;2023-05-07T05:58:08;14.60;99.90
7360;DHT22;3720;48.274;7.796;2023-05-07T06:00:41;14.90;99.90
7360;DHT22;3720;48.274;7.796;2023-05-07T06:03:13;15.00;99.90
7360;DHT22;3720;48.274;7.796;2023-05-07T06:05:44;15.00;99.90
7360;DHT22;3720;48.274;7.796;2023-05-07T06:08:16;14.90;99.90
7360;DHT22;3720;48.274;7.796;2023-05-07T06:10:49;14.90;99.90
7360;DHT22;3720;48.274;7.796;2023-05-07T06:13:22;14.80;99.90
7360;DHT22;3720;48.274;7.796;2023-05-07T06:15:55;14.80;99.90
7360;DHT22;3720;48.274;7.796;2023-05-07T06:18:26;14.80;99.90
7360;DHT22;3720;48.274;7.796;2023-05-07T06:20:58;14.80;99.90
7360;DHT22;3720;48.274;7.796;2023-05-07T06:23:30;14.80;99.90
7360;DHT22;3720;48.274;7.796;2023-05-07T06:26:02;14.80;99.90
7360;DHT22;3720;48.274;7.796;2023-05-07T06:28:36;14.90;99.90
7360;DHT22;3720;48.274;7.796;2023-05-07T06:31:11;14.90;99.90
7360;DHT22;3720;48.274;7.796;2023-05-07T06:33:44;15.10;99.90
7360;DHT22;3720;48.274;7.796;2023-05-07T06:36:16;15.20;99.90
7360;DHT22;3720;48.274;7.796;2023-05-07T06:38:48;15.40;99.90
7360;DHT22;3720;48.274;7.796;2023-05-07T06:41:20;15.40;99.90
7360;DHT22;3720;48.274;7.796;2023-05-07T06:43:53;15.50;99.90
7360;DHT22;3720;48.274;7.796;2023-05-07T06:46:25;15.50;99.90
7360;DHT22;3720;48.274;7.796;2023-05-07T06:48:57;15.60;99.90
7360;DHT22;3720;48.274;7.796;2023-05-07T06:51:29;15.60;99.90
7360;DHT22;3720;48.274;7.796;2023-05-07T06:54:01;15.60;99.90
7360;DHT22;3720;48.274;7.796;2023-05-07T06:56:34;15.60;99.90
7360;DHT22;3720;48.274;7.796;2023-05-07T06:59:08;15.60;99.90
7360;DHT22;3720;48.274;7.796;2023-05-07T07:01:40;15.70;99.90
7360;DHT22;3720;48.274;7.796;2023-05-07T07:04:12;15.80;99.90
7360;DHT22;3720;48.274;7.796;2023-05-07T07:06:44;15.90;99.90
7360;DHT22;3720;48.274;7.796;2023-05-07T07:09:17;15.90;99.90
7360;DHT22;3720;48.274;7.796;2023-05-07T07:11:49;15.90;99.90
7360;DHT22;3720;48.274;7.796;2023-05-07T07:14:22;16.10;99.90
7360;DHT22;3720;48.274;7.796;2023-05-07T07:16:54;16.20;99.90
7360;DHT22;3720;48.274;7.796;2023-05-07T07:19:26;16.30;99.90
7360;DHT22;3720;48.274;7.796;2023-05-07T07:21:58;16.30;99.90
7360;DHT22;3720;48.274;7.796;2023-05-07T07:24:30;16.50;99.90
7360;DHT22;3720;48.274;7.796;2023-05-07T07:27:02;16.60;99.90
7360;DHT22;3720;48.274;7.796;2023-05-07T07:29:35;16.70;99.90
7360;DHT22;3720;48.274;7.796;2023-05-07T07:32:07;16.70;99.90
7360;DHT22;3720;48.274;7.796;2023-05-07T07:34:39;16.80;99.90
7360;DHT22;3720;48.274;7.796;2023-05-07T07:37:12;16.90;99.90
7360;DHT22;3720;48.274;7.796;2023-05-07T07:39:43;17.00;99.90
7360;DHT22;3720;48.274;7.796;2023-05-07T07:42:15;17.30;99.90
7360;DHT22;3720;48.274;7.796;2023-05-07T07:44:50;17.40;99.90
7360;DHT22;3720;48.274;7.796;2023-05-07T07:47:21;17.50;99.90
7360;DHT22;3720;48.274;7.796;2023-05-07T07:49:53;17.60;99.90
7360;DHT22;3720;48.274;7.796;2023-05-07T07:52:26;17.50;99.90
7360;DHT22;3720;48.274;7.796;2023-05-07T07:54:57;17.50;99.90
7360;DHT22;3720;48.274;7.796;2023-05-07T07:57:29;17.50;99.90
7360;DHT22;3720;48.274;7.796;2023-05-07T08:00:04;17.60;99.90
7360;DHT22;3720;48.274;7.796;2023-05-07T08:02:37;17.80;99.90
7360;DHT22;3720;48.274;7.796;2023-05-07T08:05:10;18.10;99.90
7360;DHT22;3720;48.274;7.796;2023-05-07T08:07:42;18.30;99.90
7360;DHT22;3720;48.274;7.796;2023-05-07T08:10:14;18.50;99.90
7360;DHT22;3720;48.274;7.796;2023-05-07T08:12:51;18.80;99.90
7360;DHT22;3720;48.274;7.796;2023-05-07T08:15:25;18.90;99.90
7360;DHT22;3720;48.274;7.796;2023-05-07T08:17:57;19.10;99.90
7360;DHT22;3720;48.274;7.796;2023-05-07T08:20:30;19.20;99.90
7360;DHT22;3720;48.274;7.796;2023-05-07T08:23:02;19.30;99.90
7360;DHT22;3720;48.274;7.796;2023-05-07T08:25:34;19.40;99.90
7360;DHT22;3720;48.274;7.796;2023-05-07T08:28:06;19.50;99.90
7360;DHT22;3720;48.274;7.796;2023-05-07T08:30:40;19.60;99.90
7360;DHT22;3720;48.274;7.796;2023-05-07T08:33:12;19.60;99.90
7360;DHT22;3720;48.274;7.796;2023-05-07T08:35:44;19.50;99.90
7360;DHT22;3720;48.274;7.796;2023-05-07T08:38:16;19.60;99.90
7360;DHT22;3720;48.274;7.796;2023-05-07T08:40:48;19.80;99.90
7360;DHT22;3720;48.274;7.796;2023-05-07T08:43:21;19.90;99.90
7360;DHT22;3720;48.274;7.796;2023-05-07T08:45:55;20.10;99.90
7360;DHT22;3720;48.274;7.796;2023-05-07T08:48:29;20.20;99.90
7360;DHT22;3720;48.274;7.796;2023-05-07T08:51:03;20.30;99.90
7360;DHT22;3720;48.274;7.796;2023-05-07T08:53:35;20.50;99.90
7360;DHT22;3720;48.274;7.796;2023-05-07T08:56:08;20.60;99.90
7360;DHT22;3720;48.274;7.796;2023-05-07T08:58:41;20.90;99.90
7360;DHT22;3720;48.274;7.796;2023-05-07T09:01:16;21.00;99.90
7360;DHT22;3720;48.274;7.796;2023-05-07T09:03:50;21.10;99.90
7360;DHT22;3720;48.274;7.796;2023-05-07T09:06:22;21.20;99.90
7360;DHT22;3720;48.274;7.796;2023-05-07T09:08:54;21.30;99.90
7360;DHT22;3720;48.274;7.796;2023-05-07T09:11:28;21.40;99.90
7360;DHT22;3720;48.274;7.796;2023-05-07T09:14:00;21.40;99.90
7360;DHT22;3720;48.274;7.796;2023-05-07T09:16:34;21.50;99.90
7360;DHT22;3720;48.274;7.796;2023-05-07T09:19:06;21.50;99.90
7360;DHT22;3720;48.274;7.796;2023-05-07T09:21:38;21.70;99.90
7360;DHT22;3720;48.274;7.796;2023-05-07T09:24:10;21.90;99.90
7360;DHT22;3720;48.274;7.796;2023-05-07T09:26:42;21.90;99.90
7360;DHT22;3720;48.274;7.796;2023-05-07T09:29:15;22.00;99.90
7360;DHT22;3720;48.274;7.796;2023-05-07T09:31:49;22.10;99.90
7360;DHT22;3720;48.274;7.796;2023-05-07T09:34:21;22.20;99.90
7360;DHT22;3720;48.274;7.796;2023-05-07T09:36:54;22.20;99.90
7360;DHT22;3720;48.274;7.796;2023-05-07T09:39:38;22.30;99.90
7360;DHT22;3720;48.274;7.796;2023-05-07T09:42:11;22.30;99.90
7360;DHT22;3720;48.274;7.796;2023-05-07T09:44:43;22.30;99.90
7360;DHT22;3720;48.274;7.796;2023-05-07T09:47:19;22.50;99.90
7360;DHT22;3720;48.274;7.796;2023-05-07T09:49:56;22.60;99.90
7360;DHT22;3720;48.274;7.796;2023-05-07T09:52:30;22.70;99.90
7360;DHT22;3720;48.274;7.796;2023-05-07T09:55:04;22.70;99.90
7360;DHT22;3720;48.274;7.796;2023-05-07T09:57:38;22.70;99.90
7360;DHT22;3720;48.274;7.796;2023-05-07T10:00:11;22.70;99.90
7360;DHT22;3720;48.274;7.796;2023-05-07T10:02:45;22.80;99.90
7360;DHT22;3720;48.274;7.796;2023-05-07T10:05:19;22.90;99.90
7360;DHT22;3720;48.274;7.796;2023-05-07T10:07:53;22.90;99.90
7360;DHT22;3720;48.274;7.796;2023-05-07T10:10:26;22.90;99.90
7360;DHT22;3720;48.274;7.796;2023-05-07T10:12:59;22.90;99.90
7360;DHT22;3720;48.274;7.796;2023-05-07T10:15:32;23.10;99.90
7360;DHT22;3720;48.274;7.796;2023-05-07T10:18:06;23.20;99.90
7360;DHT22;3720;48.274;7.796;2023-05-07T10:20:39;23.30;99.90
7360;DHT22;3720;48.274;7.796;2023-05-07T10:23:14;23.20;99.90
7360;DHT22;3720;48.274;7.796;2023-05-07T10:25:50;23.10;99.90
7360;DHT22;3720;48.274;7.796;2023-05-07T10:28:23;23.10;99.90
7360;DHT22;3720;48.274;7.796;2023-05-07T10:31:04;23.10;99.90
7360;DHT22;3720;48.274;7.796;2023-05-07T10:33:42;23.10;99.90
7360;DHT22;3720;48.274;7.796;2023-05-07T10:36:16;23.00;99.90
7360;DHT22;3720;48.274;7.796;2023-05-07T10:38:48;22.90;99.90
7360;DHT22;3720;48.274;7.796;2023-05-07T10:41:21;22.80;99.90
7360;DHT22;3720;48.274;7.796;2023-05-07T10:43:53;22.70;99.90
7360;DHT22;3720;48.274;7.796;2023-05-07T10:46:24;22.80;99.90
7360;DHT22;3720;48.274;7.796;2023-05-07T10:49:10;22.90;99.90
7360;DHT22;3720;48.274;7.796;2023-05-07T10:52:13;23.00;99.90
7360;DHT22;3720;48.274;7.796;2023-05-07T10:54:46;23.00;99.90
7360;DHT22;3720;48.274;7.796;2023-05-07T10:57:34;23.10;99.90
7360;DHT22;3720;48.274;7.796;2023-05-07T11:00:40;23.20;99.90
7360;DHT22;3720;48.274;7.796;2023-05-07T11:03:13;23.20;99.90
7360;DHT22;3720;48.274;7.796;2023-05-07T11:05:47;23.30;99.90
7360;DHT22;3720;48.274;7.796;2023-05-07T11:08:19;22.90;99.90
7360;DHT22;3720;48.274;7.796;2023-05-07T11:10:53;22.60;99.90
7360;DHT22;3720;48.274;7.796;2023-05-07T11:13:44;22.60;99.90
7360;DHT22;3720;48.274;7.796;2023-05-07T11:16:18;22.60;99.90
7360;DHT22;3720;48.274;7.796;2023-05-07T11:18:52;22.60;99.90
7360;DHT22;3720;48.274;7.796;2023-05-07T11:21:36;22.50;99.90
7360;DHT22;3720;48.274;7.796;2023-05-07T11:24:09;22.50;99.90
7360;DHT22;3720;48.274;7.796;2023-05-07T11:26:46;22.40;99.90
7360;DHT22;3720;48.274;7.796;2023-05-07T11:29:19;22.50;99.90
7360;DHT22;3720;48.274;7.796;2023-05-07T11:31:54;22.60;99.90
7360;DHT22;3720;48.274;7.796;2023-05-07T11:34:28;22.50;99.90
7360;DHT22;3720;48.274;7.796;2023-05-07T11:37:02;22.20;99.90
7360;DHT22;3720;48.274;7.796;2023-05-07T11:39:34;22.10;99.90
7360;DHT22;3720;48.274;7.796;2023-05-07T11:42:06;21.90;99.90
7360;DHT22;3720;48.274;7.796;2023-05-07T11:44:42;21.70;99.90
7360;DHT22;3720;48.274;7.796;2023-05-07T11:47:20;21.60;99.90
7360;DHT22;3720;48.274;7.796;2023-05-07T11:49:53;21.50;99.90
7360;DHT22;3720;48.274;7.796;2023-05-07T11:52:27;21.50;99.90
7360;DHT22;3720;48.274;7.796;2023-05-07T11:55:00;21.40;99.90
7360;DHT22;3720;48.274;7.796;2023-05-07T11:57:34;21.40;99.90
7360;DHT22;3720;48.274;7.796;2023-05-07T12:00:07;21.40;99.90
7360;DHT22;3720;48.274;7.796;2023-05-07T12:02:39;21.30;99.90
7360;DHT22;3720;48.274;7.796;2023-05-07T12:05:12;21.20;99.90
7360;DHT22;3720;48.274;7.796;2023-05-07T12:07:45;20.90;99.90
7360;DHT22;3720;48.274;7.796;2023-05-07T12:10:17;20.70;99.90
7360;DHT22;3720;48.274;7.796;2023-05-07T12:12:50;20.60;99.90
7360;DHT22;3720;48.274;7.796;2023-05-07T12:15:22;20.60;99.90
7360;DHT22;3720;48.274;7.796;2023-05-07T12:17:55;20.50;99.90
7360;DHT22;3720;48.274;7.796;2023-05-07T12:20:27;20.50;99.90
7360;DHT22;3720;48.274;7.796;2023-05-07T12:23:01;20.50;99.90
7360;DHT22;3720;48.274;7.796;2023-05-07T12:25:34;20.50;99.90
7360;DHT22;3720;48.274;7.796;2023-05-07T12:28:07;20.60;99.90
7360;DHT22;3720;48.274;7.796;2023-05-07T12:30:40;20.60;99.90
7360;DHT22;3720;48.274;7.796;2023-05-07T12:33:14;20.60;99.90
7360;DHT22;3720;48.274;7.796;2023-05-07T12:35:48;20.60;99.90
7360;DHT22;3720;48.274;7.796;2023-05-07T12:38:22;20.60;99.90
7360;DHT22;3720;48.274;7.796;2023-05-07T12:40:54;20.60;99.90
7360;DHT22;3720;48.274;7.796;2023-05-07T12:43:28;20.60;99.90
7360;DHT22;3720;48.274;7.796;2023-05-07T12:46:01;20.60;99.90
7360;DHT22;3720;48.274;7.796;2023-05-07T12:48:36;20.60;99.90
7360;DHT22;3720;48.274;7.796;2023-05-07T12:51:08;20.60;99.90
7360;DHT22;3720;48.274;7.796;2023-05-07T12:53:45;20.60;99.90
7360;DHT22;3720;48.274;7.796;2023-05-07T12:56:17;20.70;99.90
7360;DHT22;3720;48.274;7.796;2023-05-07T12:58:49;20.80;99.90
7360;DHT22;3720;48.274;7.796;2023-05-07T13:01:21;20.90;99.90
7360;DHT22;3720;48.274;7.796;2023-05-07T13:03:54;21.00;99.90
7360;DHT22;3720;48.274;7.796;2023-05-07T13:06:26;21.10;99.90
7360;DHT22;3720;48.274;7.796;2023-05-07T13:08:59;21.30;99.90
7360;DHT22;3720;48.274;7.796;2023-05-07T13:11:31;21.40;99.90
7360;DHT22;3720;48.274;7.796;2023-05-07T13:14:03;21.40;99.90
7360;DHT22;3720;48.274;7.796;2023-05-07T13:16:35;21.50;99.90
7360;DHT22;3720;48.274;7.796;2023-05-07T13:19:07;21.60;99.90
7360;DHT22;3720;48.274;7.796;2023-05-07T13:21:39;21.60;99.90
7360;DHT22;3720;48.274;7.796;2023-05-07T13:24:12;21.60;99.90
7360;DHT22;3720;48.274;7.796;2023-05-07T13:26:45;21.70;99.90
7360;DHT22;3720;48.274;7.796;2023-05-07T13:29:16;21.80;99.90
7360;DHT22;3720;48.274;7.796;2023-05-07T13:31:48;21.90;99.90
7360;DHT22;3720;48.274;7.796;2023-05-07T13:34:20;21.90;99.90
7360;DHT22;3720;48.274;7.796;2023-05-07T13:36:52;22.00;99.90
7360;DHT22;3720;48.274;7.796;2023-05-07T13:39:25;21.90;99.90
7360;DHT22;3720;48.274;7.796;2023-05-07T13:41:57;21.90;99.90
7360;DHT22;3720;48.274;7.796;2023-05-07T13:44:29;21.90;99.90
7360;DHT22;3720;48.274;7.796;2023-05-07T13:47:01;21.90;99.90
7360;DHT22;3720;48.274;7.796;2023-05-07T13:49:33;21.90;99.90
7360;DHT22;3720;48.274;7.796;2023-05-07T13:52:05;21.90;99.90
7360;DHT22;3720;48.274;7.796;2023-05-07T13:54:39;21.90;99.90
7360;DHT22;3720;48.274;7.796;2023-05-07T13:57:10;21.70;99.90
7360;DHT22;3720;48.274;7.796;2023-05-07T13:59:43;21.60;99.90
7360;DHT22;3720;48.274;7.796;2023-05-07T14:02:14;21.50;99.90
7360;DHT22;3720;48.274;7.796;2023-05-07T14:04:46;21.40;99.90
7360;DHT22;3720;48.274;7.796;2023-05-07T14:07:18;21.40;99.90
7360;DHT22;3720;48.274;7.796;2023-05-07T14:09:51;21.30;99.90
7360;DHT22;3720;48.274;7.796;2023-05-07T14:12:24;21.30;99.90
7360;DHT22;3720;48.274;7.796;2023-05-07T14:14:56;21.30;99.90
7360;DHT22;3720;48.274;7.796;2023-05-07T14:17:28;21.20;99.90
7360;DHT22;3720;48.274;7.796;2023-05-07T14:20:00;21.30;99.90
7360;DHT22;3720;48.274;7.796;2023-05-07T14:22:32;21.30;99.90
7360;DHT22;3720;48.274;7.796;2023-05-07T14:25:07;21.30;99.90
7360;DHT22;3720;48.274;7.796;2023-05-07T14:27:41;21.40;99.90
7360;DHT22;3720;48.274;7.796;2023-05-07T14:30:13;21.40;99.90
7360;DHT22;3720;48.274;7.796;2023-05-07T14:32:45;21.50;99.90
7360;DHT22;3720;48.274;7.796;2023-05-07T14:35:18;21.60;99.90
7360;DHT22;3720;48.274;7.796;2023-05-07T14:37:49;21.80;99.90
7360;DHT22;3720;48.274;7.796;2023-05-07T14:40:23;21.90;99.90
7360;DHT22;3720;48.274;7.796;2023-05-07T14:42:55;22.00;99.90
7360;DHT22;3720;48.274;7.796;2023-05-07T14:45:28;22.10;99.90
7360;DHT22;3720;48.274;7.796;2023-05-07T14:48:00;22.10;99.90
7360;DHT22;3720;48.274;7.796;2023-05-07T14:50:32;22.10;99.90
7360;DHT22;3720;48.274;7.796;2023-05-07T14:53:04;21.90;99.90
7360;DHT22;3720;48.274;7.796;2023-05-07T14:55:37;21.80;99.90
7360;DHT22;3720;48.274;7.796;2023-05-07T14:58:10;21.80;99.90
7360;DHT22;3720;48.274;7.796;2023-05-07T15:00:42;21.60;99.90
7360;DHT22;3720;48.274;7.796;2023-05-07T15:03:15;21.50;99.90
7360;DHT22;3720;48.274;7.796;2023-05-07T15:05:46;21.30;99.90
7360;DHT22;3720;48.274;7.796;2023-05-07T15:08:21;21.30;99.90
7360;DHT22;3720;48.274;7.796;2023-05-07T15:10:54;21.20;99.90
7360;DHT22;3720;48.274;7.796;2023-05-07T15:13:26;21.20;99.90
7360;DHT22;3720;48.274;7.796;2023-05-07T15:15:58;21.20;99.90
7360;DHT22;3720;48.274;7.796;2023-05-07T15:18:30;21.30;99.90
7360;DHT22;3720;48.274;7.796;2023-05-07T15:21:02;21.30;99.90
7360;DHT22;3720;48.274;7.796;2023-05-07T15:23:35;21.30;99.90
7360;DHT22;3720;48.274;7.796;2023-05-07T15:26:08;21.30;99.90
7360;DHT22;3720;48.274;7.796;2023-05-07T15:28:40;21.50;99.90
7360;DHT22;3720;48.274;7.796;2023-05-07T15:31:12;21.50;99.90
7360;DHT22;3720;48.274;7.796;2023-05-07T15:33:44;21.40;99.90
7360;DHT22;3720;48.274;7.796;2023-05-07T15:36:18;21.40;99.90
7360;DHT22;3720;48.274;7.796;2023-05-07T15:38:50;21.40;99.90
7360;DHT22;3720;48.274;7.796;2023-05-07T15:41:24;21.40;99.90
7360;DHT22;3720;48.274;7.796;2023-05-07T15:43:55;21.50;99.90
7360;DHT22;3720;48.274;7.796;2023-05-07T15:46:27;21.60;99.90
7360;DHT22;3720;48.274;7.796;2023-05-07T15:49:01;21.60;99.90
7360;DHT22;3720;48.274;7.796;2023-05-07T15:51:34;21.70;99.90
7360;DHT22;3720;48.274;7.796;2023-05-07T15:54:07;21.70;99.90
7360;DHT22;3720;48.274;7.796;2023-05-07T15:56:40;21.70;99.90
7360;DHT22;3720;48.274;7.796;2023-05-07T15:59:12;21.80;99.90
7360;DHT22;3720;48.274;7.796;2023-05-07T16:01:45;22.00;99.90
7360;DHT22;3720;48.274;7.796;2023-05-07T16:04:17;22.10;99.90
7360;DHT22;3720;48.274;7.796;2023-05-07T16:06:49;22.20;99.90
7360;DHT22;3720;48.274;7.796;2023-05-07T16:09:21;22.30;99.90
7360;DHT22;3720;48.274;7.796;2023-05-07T16:11:56;22.40;99.90
7360;DHT22;3720;48.274;7.796;2023-05-07T16:14:28;22.50;99.90
7360;DHT22;3720;48.274;7.796;2023-05-07T16:17:00;22.40;99.90
7360;DHT22;3720;48.274;7.796;2023-05-07T16:19:32;22.40;99.90
7360;DHT22;3720;48.274;7.796;2023-05-07T16:22:04;22.30;99.90
7360;DHT22;3720;48.274;7.796;2023-05-07T16:24:36;22.30;99.90
7360;DHT22;3720;48.274;7.796;2023-05-07T16:27:09;22.30;99.90
7360;DHT22;3720;48.274;7.796;2023-05-07T16:29:41;22.20;99.90
7360;DHT22;3720;48.274;7.796;2023-05-07T16:32:13;22.10;99.90
7360;DHT22;3720;48.274;7.796;2023-05-07T16:34:45;22.00;99.90
7360;DHT22;3720;48.274;7.796;2023-05-07T16:37:17;21.90;99.90
7360;DHT22;3720;48.274;7.796;2023-05-07T16:39:49;21.90;99.90